sensor_id;sensor_type;location;lat;lon;timestamp;P1;durP1;ratioP1;P2;durP2;ratioP2
15289;SDS011;7746;50.554;7.108;2023-03-04T00:02:22;3.53;;;2.73;;
15289;SDS011;7746;50.554;7.108;2023-03-04T00:04:49;5.60;;;3.13;;
15289;SDS011;7746;50.554;7.108;2023-03-04T00:07:16;4.97;;;3.23;;
15289;SDS011;7746;50.554;7.108;2023-03-04T00:09:43;6.33;;;4.33;;
15289;SDS011;7746;50.554;7.108;2023-03-04T00:12:11;10.27;;;5.87;;
15289;SDS011;7746;50.554;7.108;2023-03-04T00:14:38;9.50;;;5.37;;
15289;SDS011;7746;50.554;7.108;2023-03-04T00:17:07;9.83;;;5.87;;
15289;SDS011;7746;50.554;7.108;2023-03-04T00:19:34;10.50;;;6.23;;
15289;SDS011;7746;50.554;7.108;2023-03-04T00:22:01;6.83;;;4.23;;
15289;SDS011;7746;50.554;7.108;2023-03-04T00:24:29;7.23;;;4.07;;
15289;SDS011;7746;50.554;7.108;2023-03-04T00:26:56;8.17;;;4.20;;
15289;SDS011;7746;50.554;7.108;2023-03-04T00:29:23;7.90;;;4.67;;
15289;SDS011;7746;50.554;7.108;2023-03-04T00:31:50;8.63;;;5.10;;
15289;SDS011;7746;50.554;7.108;2023-03-04T00:34:18;13.23;;;6.17;;
15289;SDS011;7746;50.554;7.108;2023-03-04T00:36:45;9.73;;;5.40;;
15289;SDS011;7746;50.554;7.108;2023-03-04T00:39:13;10.07;;;5.23;;
15289;SDS011;7746;50.554;7.108;2023-03-04T00:41:40;5.33;;;3.80;;
15289;SDS011;7746;50.554;7.108;2023-03-04T00:44:07;9.43;;;5.40;;
15289;SDS011;7746;50.554;7.108;2023-03-04T00:46:34;5.80;;;4.30;;
15289;SDS011;7746;50.554;7.108;2023-03-04T00:49:01;9.23;;;5.40;;
15289;SDS011;7746;50.554;7.108;2023-03-04T00:51:30;5.70;;;4.10;;
15289;SDS011;7746;50.554;7.108;2023-03-04T00:53:57;14.00;;;7.60;;
15289;SDS011;7746;50.554;7.108;2023-03-04T00:56:24;9.00;;;4.97;;
15289;SDS011;7746;50.554;7.108;2023-03-04T00:58:51;10.07;;;5.80;;
15289;SDS011;7746;50.554;7.108;2023-03-04T01:01:18;13.63;;;7.17;;
15289;SDS011;7746;50.554;7.108;2023-03-04T01:03:45;10.73;;;6.47;;
15289;SDS011;7746;50.554;7.108;2023-03-04T01:06:12;10.40;;;6.17;;
15289;SDS011;7746;50.554;7.108;2023-03-04T01:08:41;10.70;;;5.77;;
15289;SDS011;7746;50.554;7.108;2023-03-04T01:11:08;9.40;;;5.47;;
15289;SDS011;7746;50.554;7.108;2023-03-04T01:13:35;11.53;;;7.10;;
15289;SDS011;7746;50.554;7.108;2023-03-04T01:16:02;10.30;;;6.83;;
15289;SDS011;7746;50.554;7.108;2023-03-04T01:18:29;8.50;;;5.17;;
15289;SDS011;7746;50.554;7.108;2023-03-04T01:20:57;6.13;;;3.87;;
15289;SDS011;7746;50.554;7.108;2023-03-04T01:23:36;11.23;;;5.97;;
15289;SDS011;7746;50.554;7.108;2023-03-04T01:26:06;8.47;;;5.33;;
15289;SDS011;7746;50.554;7.108;2023-03-04T01:28:33;9.97;;;5.50;;
15289;SDS011;7746;50.554;7.108;2023-03-04T01:31:00;14.20;;;6.57;;
15289;SDS011;7746;50.554;7.108;2023-03-04T01:33:27;18.23;;;9.00;;
15289;SDS011;7746;50.554;7.108;2023-03-04T01:35:55;9.93;;;4.97;;
15289;SDS011;7746;50.554;7.108;2023-03-04T01:38:22;10.77;;;5.50;;
15289;SDS011;7746;50.554;7.108;2023-03-04T01:40:49;7.40;;;4.37;;
15289;SDS011;7746;50.554;7.108;2023-03-04T01:43:20;8.60;;;4.93;;
15289;SDS011;7746;50.554;7.108;2023-03-04T01:45:47;7.67;;;4.60;;
15289;SDS011;7746;50.554;7.108;2023-03-04T01:48:15;9.67;;;5.17;;
15289;SDS011;7746;50.554;7.108;2023-03-04T01:50:44;7.33;;;4.57;;
15289;SDS011;7746;50.554;7.108;2023-03-04T01:53:14;11.13;;;5.93;;
15289;SDS011;7746;50.554;7.108;2023-03-04T01:55:43;13.23;;;5.93;;
15289;SDS011;7746;50.554;7.108;2023-03-04T01:58:10;12.13;;;6.17;;
15289;SDS011;7746;50.554;7.108;2023-03-04T02:00:41;8.13;;;4.97;;
15289;SDS011;7746;50.554;7.108;2023-03-04T02:03:10;8.50;;;6.23;;
15289;SDS011;7746;50.554;7.108;2023-03-04T02:05:37;8.83;;;6.97;;
15289;SDS011;7746;50.554;7.108;2023-03-04T02:08:05;8.03;;;6.50;;
15289;SDS011;7746;50.554;7.108;2023-03-04T02:10:32;7.43;;;5.43;;
15289;SDS011;7746;50.554;7.108;2023-03-04T02:13:00;6.10;;;4.17;;
15289;SDS011;7746;50.554;7.108;2023-03-04T02:15:28;7.43;;;4.13;;
15289;SDS011;7746;50.554;7.108;2023-03-04T02:17:56;7.23;;;5.97;;
15289;SDS011;7746;50.554;7.108;2023-03-04T02:20:26;12.93;;;6.43;;
15289;SDS011;7746;50.554;7.108;2023-03-04T02:22:58;9.47;;;5.03;;
15289;SDS011;7746;50.554;7.108;2023-03-04T02:25:28;10.47;;;5.90;;
15289;SDS011;7746;50.554;7.108;2023-03-04T02:27:58;9.23;;;4.97;;
15289;SDS011;7746;50.554;7.108;2023-03-04T02:30:25;10.97;;;7.03;;
15289;SDS011;7746;50.554;7.108;2023-03-04T02:32:52;4.50;;;3.77;;
15289;SDS011;7746;50.554;7.108;2023-03-04T02:35:19;5.57;;;4.03;;
15289;SDS011;7746;50.554;7.108;2023-03-04T02:37:47;6.17;;;4.03;;
15289;SDS011;7746;50.554;7.108;2023-03-04T02:40:15;6.63;;;4.37;;
15289;SDS011;7746;50.554;7.108;2023-03-04T02:42:43;7.23;;;4.57;;
15289;SDS011;7746;50.554;7.108;2023-03-04T02:48:09;14.67;;;6.03;;
15289;SDS011;7746;50.554;7.108;2023-03-04T02:50:38;11.23;;;5.77;;
15289;SDS011;7746;50.554;7.108;2023-03-04T02:53:06;6.73;;;4.50;;
15289;SDS011;7746;50.554;7.108;2023-03-04T02:55:33;5.70;;;3.67;;
15289;SDS011;7746;50.554;7.108;2023-03-04T02:58:00;5.93;;;4.20;;
15289;SDS011;7746;50.554;7.108;2023-03-04T03:00:27;8.50;;;4.97;;
15289;SDS011;7746;50.554;7.108;2023-03-04T03:02:55;9.07;;;4.80;;
15289;SDS011;7746;50.554;7.108;2023-03-04T03:05:24;8.27;;;4.93;;
15289;SDS011;7746;50.554;7.108;2023-03-04T03:07:51;5.73;;;4.00;;
15289;SDS011;7746;50.554;7.108;2023-03-04T03:10:18;13.27;;;11.00;;
15289;SDS011;7746;50.554;7.108;2023-03-04T03:12:45;7.17;;;4.40;;
15289;SDS011;7746;50.554;7.108;2023-03-04T03:15:12;6.63;;;4.47;;
15289;SDS011;7746;50.554;7.108;2023-03-04T03:17:40;8.63;;;5.87;;
15289;SDS011;7746;50.554;7.108;2023-03-04T03:20:07;5.60;;;4.67;;
15289;SDS011;7746;50.554;7.108;2023-03-04T03:22:36;4.07;;;3.37;;
15289;SDS011;7746;50.554;7.108;2023-03-04T03:25:03;4.80;;;3.53;;
15289;SDS011;7746;50.554;7.108;2023-03-04T03:27:30;6.40;;;4.13;;
15289;SDS011;7746;50.554;7.108;2023-03-04T03:29:57;6.40;;;4.23;;
15289;SDS011;7746;50.554;7.108;2023-03-04T03:32:25;5.43;;;3.37;;
15289;SDS011;7746;50.554;7.108;2023-03-04T03:34:52;4.47;;;3.47;;
15289;SDS011;7746;50.554;7.108;2023-03-04T03:37:19;5.50;;;3.00;;
15289;SDS011;7746;50.554;7.108;2023-03-04T03:39:47;4.20;;;2.90;;
15289;SDS011;7746;50.554;7.108;2023-03-04T03:42:14;6.50;;;3.17;;
15289;SDS011;7746;50.554;7.108;2023-03-04T03:44:41;4.63;;;2.73;;
15289;SDS011;7746;50.554;7.108;2023-03-04T03:47:08;3.90;;;2.43;;
15289;SDS011;7746;50.554;7.108;2023-03-04T03:49:35;4.63;;;2.70;;
15289;SDS011;7746;50.554;7.108;2023-03-04T03:52:02;4.13;;;2.20;;
15289;SDS011;7746;50.554;7.108;2023-03-04T03:54:30;3.90;;;2.43;;
15289;SDS011;7746;50.554;7.108;2023-03-04T03:56:58;2.77;;;2.07;;
15289;SDS011;7746;50.554;7.108;2023-03-04T03:59:25;4.37;;;2.77;;
15289;SDS011;7746;50.554;7.108;2023-03-04T04:01:52;3.47;;;2.30;;
15289;SDS011;7746;50.554;7.108;2023-03-04T04:04:19;7.83;;;3.30;;
15289;SDS011;7746;50.554;7.108;2023-03-04T04:06:46;4.03;;;2.60;;
15289;SDS011;7746;50.554;7.108;2023-03-04T04:09:13;5.30;;;2.70;;
15289;SDS011;7746;50.554;7.108;2023-03-04T04:11:40;3.03;;;2.27;;
15289;SDS011;7746;50.554;7.108;2023-03-04T04:14:09;4.93;;;2.50;;
15289;SDS011;7746;50.554;7.108;2023-03-04T04:16:37;4.67;;;2.60;;
15289;SDS011;7746;50.554;7.108;2023-03-04T04:19:04;9.50;;;3.87;;
15289;SDS011;7746;50.554;7.108;2023-03-04T04:21:31;4.13;;;2.83;;
15289;SDS011;7746;50.554;7.108;2023-03-04T04:23:58;3.53;;;2.53;;
15289;SDS011;7746;50.554;7.108;2023-03-04T04:26:25;3.17;;;2.40;;
15289;SDS011;7746;50.554;7.108;2023-03-04T04:28:52;5.20;;;2.93;;
15289;SDS011;7746;50.554;7.108;2023-03-04T04:31:21;5.13;;;2.87;;
15289;SDS011;7746;50.554;7.108;2023-03-04T04:33:48;4.80;;;2.77;;
15289;SDS011;7746;50.554;7.108;2023-03-04T04:36:15;5.60;;;3.63;;
15289;SDS011;7746;50.554;7.108;2023-03-04T04:38:42;4.73;;;3.20;;
15289;SDS011;7746;50.554;7.108;2023-03-04T04:41:16;6.67;;;3.83;;
15289;SDS011;7746;50.554;7.108;2023-03-04T04:43:44;6.43;;;3.97;;
15289;SDS011;7746;50.554;7.108;2023-03-04T04:46:11;3.87;;;3.50;;
15289;SDS011;7746;50.554;7.108;2023-03-04T04:48:39;7.00;;;4.97;;
15289;SDS011;7746;50.554;7.108;2023-03-04T04:51:07;6.70;;;4.60;;
15289;SDS011;7746;50.554;7.108;2023-03-04T04:53:34;10.00;;;5.30;;
15289;SDS011;7746;50.554;7.108;2023-03-04T04:56:07;7.53;;;4.77;;
15289;SDS011;7746;50.554;7.108;2023-03-04T04:58:34;9.40;;;5.73;;
15289;SDS011;7746;50.554;7.108;2023-03-04T05:01:01;6.17;;;4.47;;
15289;SDS011;7746;50.554;7.108;2023-03-04T05:03:28;5.67;;;3.87;;
15289;SDS011;7746;50.554;7.108;2023-03-04T05:05:57;5.30;;;3.27;;
15289;SDS011;7746;50.554;7.108;2023-03-04T05:08:24;8.37;;;4.77;;
15289;SDS011;7746;50.554;7.108;2023-03-04T05:10:51;7.07;;;4.40;;
15289;SDS011;7746;50.554;7.108;2023-03-04T05:13:18;7.97;;;4.67;;
15289;SDS011;7746;50.554;7.108;2023-03-04T05:15:45;11.60;;;5.83;;
15289;SDS011;7746;50.554;7.108;2023-03-04T05:18:12;7.07;;;4.30;;
15289;SDS011;7746;50.554;7.108;2023-03-04T05:20:39;11.10;;;4.93;;
15289;SDS011;7746;50.554;7.108;2023-03-04T05:23:07;10.03;;;6.80;;
15289;SDS011;7746;50.554;7.108;2023-03-04T05:25:35;7.20;;;4.43;;
15289;SDS011;7746;50.554;7.108;2023-03-04T05:28:02;8.53;;;4.30;;
15289;SDS011;7746;50.554;7.108;2023-03-04T05:30:30;10.90;;;4.90;;
15289;SDS011;7746;50.554;7.108;2023-03-04T05:32:57;9.83;;;7.17;;
15289;SDS011;7746;50.554;7.108;2023-03-04T05:35:24;9.97;;;7.27;;
15289;SDS011;7746;50.554;7.108;2023-03-04T05:37:51;10.43;;;6.77;;
15289;SDS011;7746;50.554;7.108;2023-03-04T05:40:19;7.93;;;5.50;;
15289;SDS011;7746;50.554;7.108;2023-03-04T05:42:48;7.27;;;4.67;;
15289;SDS011;7746;50.554;7.108;2023-03-04T05:45:15;6.17;;;3.67;;
15289;SDS011;7746;50.554;7.108;2023-03-04T05:47:42;9.90;;;4.83;;
15289;SDS011;7746;50.554;7.108;2023-03-04T05:50:09;8.97;;;4.53;;
15289;SDS011;7746;50.554;7.108;2023-03-04T05:52:36;9.03;;;5.43;;
15289;SDS011;7746;50.554;7.108;2023-03-04T05:55:04;10.53;;;7.57;;
15289;SDS011;7746;50.554;7.108;2023-03-04T05:57:32;9.07;;;5.20;;
15289;SDS011;7746;50.554;7.108;2023-03-04T05:59:59;6.97;;;4.53;;
15289;SDS011;7746;50.554;7.108;2023-03-04T06:02:29;11.53;;;7.17;;
15289;SDS011;7746;50.554;7.108;2023-03-04T06:04:56;5.60;;;4.10;;
15289;SDS011;7746;50.554;7.108;2023-03-04T06:07:23;12.90;;;7.07;;
15289;SDS011;7746;50.554;7.108;2023-03-04T06:09:50;9.93;;;4.93;;
15289;SDS011;7746;50.554;7.108;2023-03-04T06:12:17;7.80;;;4.90;;
15289;SDS011;7746;50.554;7.108;2023-03-04T06:14:45;9.80;;;5.43;;
15289;SDS011;7746;50.554;7.108;2023-03-04T06:17:13;10.40;;;5.33;;
15289;SDS011;7746;50.554;7.108;2023-03-04T06:19:40;14.27;;;8.23;;
15289;SDS011;7746;50.554;7.108;2023-03-04T06:22:07;13.43;;;8.13;;
15289;SDS011;7746;50.554;7.108;2023-03-04T06:24:34;12.10;;;6.07;;
15289;SDS011;7746;50.554;7.108;2023-03-04T06:27:02;16.87;;;7.03;;
15289;SDS011;7746;50.554;7.108;2023-03-04T06:29:29;12.73;;;7.20;;
15289;SDS011;7746;50.554;7.108;2023-03-04T06:31:58;15.23;;;8.10;;
15289;SDS011;7746;50.554;7.108;2023-03-04T06:34:25;19.67;;;8.97;;
15289;SDS011;7746;50.554;7.108;2023-03-04T06:36:53;14.03;;;6.53;;
15289;SDS011;7746;50.554;7.108;2023-03-04T06:39:20;14.70;;;6.80;;
15289;SDS011;7746;50.554;7.108;2023-03-04T06:41:47;14.97;;;6.60;;
15289;SDS011;7746;50.554;7.108;2023-03-04T06:44:15;14.93;;;6.17;;
15289;SDS011;7746;50.554;7.108;2023-03-04T06:46:42;12.97;;;7.47;;
15289;SDS011;7746;50.554;7.108;2023-03-04T06:49:10;12.60;;;6.13;;
15289;SDS011;7746;50.554;7.108;2023-03-04T06:51:37;14.53;;;7.20;;
15289;SDS011;7746;50.554;7.108;2023-03-04T06:54:04;16.83;;;7.50;;
15289;SDS011;7746;50.554;7.108;2023-03-04T06:56:31;14.70;;;7.87;;
15289;SDS011;7746;50.554;7.108;2023-03-04T06:58:58;17.80;;;7.53;;
15289;SDS011;7746;50.554;7.108;2023-03-04T07:01:26;16.13;;;7.13;;
15289;SDS011;7746;50.554;7.108;2023-03-04T07:03:54;12.90;;;5.77;;
15289;SDS011;7746;50.554;7.108;2023-03-04T07:06:23;18.90;;;8.13;;
15289;SDS011;7746;50.554;7.108;2023-03-04T07:08:50;20.63;;;8.57;;
15289;SDS011;7746;50.554;7.108;2023-03-04T07:11:17;16.37;;;7.47;;
15289;SDS011;7746;50.554;7.108;2023-03-04T07:13:46;21.53;;;8.33;;
15289;SDS011;7746;50.554;7.108;2023-03-04T07:16:15;11.90;;;6.90;;
15289;SDS011;7746;50.554;7.108;2023-03-04T07:18:42;14.87;;;10.00;;
15289;SDS011;7746;50.554;7.108;2023-03-04T07:21:09;12.93;;;6.23;;
15289;SDS011;7746;50.554;7.108;2023-03-04T07:23:38;16.03;;;6.83;;
15289;SDS011;7746;50.554;7.108;2023-03-04T07:26:05;9.23;;;6.17;;
15289;SDS011;7746;50.554;7.108;2023-03-04T07:28:32;14.73;;;7.17;;
15289;SDS011;7746;50.554;7.108;2023-03-04T07:31:06;12.73;;;6.53;;
15289;SDS011;7746;50.554;7.108;2023-03-04T07:33:33;13.37;;;5.47;;
15289;SDS011;7746;50.554;7.108;2023-03-04T07:36:00;11.13;;;5.53;;
15289;SDS011;7746;50.554;7.108;2023-03-04T07:38:27;8.97;;;5.77;;
15289;SDS011;7746;50.554;7.108;2023-03-04T07:40:57;11.20;;;6.63;;
15289;SDS011;7746;50.554;7.108;2023-03-04T07:43:24;10.07;;;6.20;;
15289;SDS011;7746;50.554;7.108;2023-03-04T07:45:52;8.53;;;6.30;;
15289;SDS011;7746;50.554;7.108;2023-03-04T07:48:23;8.53;;;5.17;;
15289;SDS011;7746;50.554;7.108;2023-03-04T07:51:00;8.83;;;5.87;;
15289;SDS011;7746;50.554;7.108;2023-03-04T07:53:27;11.20;;;7.23;;
15289;SDS011;7746;50.554;7.108;2023-03-04T07:55:56;13.03;;;6.30;;
15289;SDS011;7746;50.554;7.108;2023-03-04T07:58:23;11.87;;;5.23;;
15289;SDS011;7746;50.554;7.108;2023-03-04T08:00:50;12.67;;;5.80;;
15289;SDS011;7746;50.554;7.108;2023-03-04T08:03:17;15.77;;;6.67;;
15289;SDS011;7746;50.554;7.108;2023-03-04T08:05:44;15.37;;;8.70;;
15289;SDS011;7746;50.554;7.108;2023-03-04T08:08:11;12.90;;;5.87;;
15289;SDS011;7746;50.554;7.108;2023-03-04T08:10:38;19.13;;;8.43;;
15289;SDS011;7746;50.554;7.108;2023-03-04T08:13:07;14.80;;;7.93;;
15289;SDS011;7746;50.554;7.108;2023-03-04T08:15:38;16.63;;;6.20;;
15289;SDS011;7746;50.554;7.108;2023-03-04T08:18:05;14.63;;;5.90;;
15289;SDS011;7746;50.554;7.108;2023-03-04T08:20:32;22.17;;;7.37;;
15289;SDS011;7746;50.554;7.108;2023-03-04T08:22:59;15.57;;;6.10;;
15289;SDS011;7746;50.554;7.108;2023-03-04T08:25:26;14.67;;;6.17;;
15289;SDS011;7746;50.554;7.108;2023-03-04T08:27:53;14.73;;;5.93;;
15289;SDS011;7746;50.554;7.108;2023-03-04T08:30:22;14.27;;;5.40;;
15289;SDS011;7746;50.554;7.108;2023-03-04T08:32:49;13.07;;;5.83;;
15289;SDS011;7746;50.554;7.108;2023-03-04T08:35:16;14.03;;;6.10;;
15289;SDS011;7746;50.554;7.108;2023-03-04T08:37:43;9.17;;;6.30;;
15289;SDS011;7746;50.554;7.108;2023-03-04T08:40:11;9.93;;;7.07;;
15289;SDS011;7746;50.554;7.108;2023-03-04T08:42:39;13.37;;;6.47;;
15289;SDS011;7746;50.554;7.108;2023-03-04T08:45:06;8.00;;;5.40;;
15289;SDS011;7746;50.554;7.108;2023-03-04T08:47:35;11.23;;;6.17;;
15289;SDS011;7746;50.554;7.108;2023-03-04T08:50:02;8.87;;;4.80;;
15289;SDS011;7746;50.554;7.108;2023-03-04T08:52:29;11.03;;;6.73;;
15289;SDS011;7746;50.554;7.108;2023-03-04T08:54:57;9.53;;;4.90;;
15289;SDS011;7746;50.554;7.108;2023-03-04T08:57:24;12.27;;;6.33;;
15289;SDS011;7746;50.554;7.108;2023-03-04T08:59:51;10.20;;;6.20;;
15289;SDS011;7746;50.554;7.108;2023-03-04T09:02:18;9.90;;;5.50;;
15289;SDS011;7746;50.554;7.108;2023-03-04T09:04:46;11.23;;;5.83;;
15289;SDS011;7746;50.554;7.108;2023-03-04T09:07:14;6.17;;;3.83;;
15289;SDS011;7746;50.554;7.108;2023-03-04T09:09:41;10.83;;;5.67;;
15289;SDS011;7746;50.554;7.108;2023-03-04T09:12:09;7.97;;;6.77;;
15289;SDS011;7746;50.554;7.108;2023-03-04T09:14:36;6.93;;;5.23;;
15289;SDS011;7746;50.554;7.108;2023-03-04T09:17:03;8.67;;;5.13;;
15289;SDS011;7746;50.554;7.108;2023-03-04T09:19:30;7.47;;;4.17;;
15289;SDS011;7746;50.554;7.108;2023-03-04T09:21:59;7.83;;;5.40;;
15289;SDS011;7746;50.554;7.108;2023-03-04T09:24:26;7.83;;;4.23;;
15289;SDS011;7746;50.554;7.108;2023-03-04T09:26:53;11.93;;;5.97;;
15289;SDS011;7746;50.554;7.108;2023-03-04T09:29:21;9.90;;;5.83;;
15289;SDS011;7746;50.554;7.108;2023-03-04T09:31:48;10.90;;;5.93;;
15289;SDS011;7746;50.554;7.108;2023-03-04T09:34:15;11.90;;;5.77;;
15289;SDS011;7746;50.554;7.108;2023-03-04T09:36:43;9.53;;;5.43;;
15289;SDS011;7746;50.554;7.108;2023-03-04T09:39:11;9.50;;;4.60;;
15289;SDS011;7746;50.554;7.108;2023-03-04T09:41:39;11.13;;;5.50;;
15289;SDS011;7746;50.554;7.108;2023-03-04T09:44:12;9.40;;;6.13;;
15289;SDS011;7746;50.554;7.108;2023-03-04T09:46:40;14.17;;;7.13;;
15289;SDS011;7746;50.554;7.108;2023-03-04T09:49:09;15.27;;;6.33;;
15289;SDS011;7746;50.554;7.108;2023-03-04T09:51:40;12.77;;;7.43;;
15289;SDS011;7746;50.554;7.108;2023-03-04T09:54:13;8.90;;;5.57;;
15289;SDS011;7746;50.554;7.108;2023-03-04T09:56:42;7.70;;;4.53;;
15289;SDS011;7746;50.554;7.108;2023-03-04T09:59:12;8.03;;;4.73;;
15289;SDS011;7746;50.554;7.108;2023-03-04T10:01:41;9.30;;;5.40;;
15289;SDS011;7746;50.554;7.108;2023-03-04T10:04:12;9.97;;;5.60;;
15289;SDS011;7746;50.554;7.108;2023-03-04T10:06:40;16.43;;;7.93;;
15289;SDS011;7746;50.554;7.108;2023-03-04T10:09:10;16.37;;;6.90;;
15289;SDS011;7746;50.554;7.108;2023-03-04T10:11:40;11.33;;;5.43;;
15289;SDS011;7746;50.554;7.108;2023-03-04T10:14:16;8.67;;;5.47;;
15289;SDS011;7746;50.554;7.108;2023-03-04T10:16:48;14.53;;;6.53;;
15289;SDS011;7746;50.554;7.108;2023-03-04T10:19:20;14.80;;;6.13;;
15289;SDS011;7746;50.554;7.108;2023-03-04T10:21:50;16.40;;;6.43;;
15289;SDS011;7746;50.554;7.108;2023-03-04T10:24:19;13.10;;;5.80;;
15289;SDS011;7746;50.554;7.108;2023-03-04T10:26:50;13.33;;;5.33;;
15289;SDS011;7746;50.554;7.108;2023-03-04T10:29:18;6.87;;;5.03;;
15289;SDS011;7746;50.554;7.108;2023-03-04T10:31:46;13.53;;;7.03;;
15289;SDS011;7746;50.554;7.108;2023-03-04T10:34:14;8.03;;;5.03;;
15289;SDS011;7746;50.554;7.108;2023-03-04T10:36:46;10.97;;;6.90;;
15289;SDS011;7746;50.554;7.108;2023-03-04T10:39:17;12.77;;;5.87;;
15289;SDS011;7746;50.554;7.108;2023-03-04T10:41:53;13.43;;;6.93;;
15289;SDS011;7746;50.554;7.108;2023-03-04T10:44:21;12.07;;;5.90;;
15289;SDS011;7746;50.554;7.108;2023-03-04T10:46:49;15.37;;;7.57;;
15289;SDS011;7746;50.554;7.108;2023-03-04T10:49:17;12.50;;;5.57;;
15289;SDS011;7746;50.554;7.108;2023-03-04T10:51:45;15.97;;;6.37;;
15289;SDS011;7746;50.554;7.108;2023-03-04T10:54:17;19.43;;;7.33;;
15289;SDS011;7746;50.554;7.108;2023-03-04T10:56:53;15.13;;;5.50;;
15289;SDS011;7746;50.554;7.108;2023-03-04T10:59:41;12.70;;;5.43;;
15289;SDS011;7746;50.554;7.108;2023-03-04T11:02:13;16.13;;;5.77;;
15289;SDS011;7746;50.554;7.108;2023-03-04T11:04:47;16.23;;;6.73;;
15289;SDS011;7746;50.554;7.108;2023-03-04T11:07:15;14.37;;;6.47;;
15289;SDS011;7746;50.554;7.108;2023-03-04T11:09:43;11.80;;;4.43;;
15289;SDS011;7746;50.554;7.108;2023-03-04T11:12:12;10.43;;;6.07;;
15289;SDS011;7746;50.554;7.108;2023-03-04T11:14:40;10.73;;;5.97;;
15289;SDS011;7746;50.554;7.108;2023-03-04T11:17:16;7.43;;;5.07;;
15289;SDS011;7746;50.554;7.108;2023-03-04T11:19:44;16.53;;;7.13;;
15289;SDS011;7746;50.554;7.108;2023-03-04T11:22:13;9.57;;;5.90;;
15289;SDS011;7746;50.554;7.108;2023-03-04T11:24:41;18.30;;;6.47;;
15289;SDS011;7746;50.554;7.108;2023-03-04T11:27:12;18.53;;;5.87;;
15289;SDS011;7746;50.554;7.108;2023-03-04T11:29:42;12.03;;;5.97;;
15289;SDS011;7746;50.554;7.108;2023-03-04T11:32:10;13.07;;;6.40;;
15289;SDS011;7746;50.554;7.108;2023-03-04T11:34:41;11.57;;;6.73;;
15289;SDS011;7746;50.554;7.108;2023-03-04T11:37:10;12.13;;;5.90;;
15289;SDS011;7746;50.554;7.108;2023-03-04T11:39:40;13.70;;;6.10;;
15289;SDS011;7746;50.554;7.108;2023-03-04T11:42:12;11.63;;;6.17;;
15289;SDS011;7746;50.554;7.108;2023-03-04T11:44:43;10.10;;;6.43;;
15289;SDS011;7746;50.554;7.108;2023-03-04T11:47:13;12.33;;;7.13;;
15289;SDS011;7746;50.554;7.108;2023-03-04T11:49:46;13.93;;;6.63;;
15289;SDS011;7746;50.554;7.108;2023-03-04T11:52:19;11.13;;;5.87;;
15289;SDS011;7746;50.554;7.108;2023-03-04T11:54:53;14.23;;;8.50;;
15289;SDS011;7746;50.554;7.108;2023-03-04T11:57:27;13.13;;;6.20;;
15289;SDS011;7746;50.554;7.108;2023-03-04T12:00:03;14.20;;;5.93;;
15289;SDS011;7746;50.554;7.108;2023-03-04T12:02:38;13.13;;;5.90;;
15289;SDS011;7746;50.554;7.108;2023-03-04T12:05:14;15.43;;;5.30;;
15289;SDS011;7746;50.554;7.108;2023-03-04T12:07:56;21.20;;;7.13;;
15289;SDS011;7746;50.554;7.108;2023-03-04T12:10:26;18.23;;;8.27;;
15289;SDS011;7746;50.554;7.108;2023-03-04T12:13:03;16.57;;;6.93;;
15289;SDS011;7746;50.554;7.108;2023-03-04T12:15:37;23.00;;;7.03;;
15289;SDS011;7746;50.554;7.108;2023-03-04T12:18:11;18.00;;;7.23;;
15289;SDS011;7746;50.554;7.108;2023-03-04T12:20:46;21.97;;;6.63;;
15289;SDS011;7746;50.554;7.108;2023-03-04T12:23:18;15.20;;;5.53;;
15289;SDS011;7746;50.554;7.108;2023-03-04T12:25:50;19.30;;;7.63;;
15289;SDS011;7746;50.554;7.108;2023-03-04T12:28:28;18.17;;;6.33;;
15289;SDS011;7746;50.554;7.108;2023-03-04T12:31:00;19.73;;;7.57;;
15289;SDS011;7746;50.554;7.108;2023-03-04T12:33:31;22.23;;;6.33;;
15289;SDS011;7746;50.554;7.108;2023-03-04T12:36:06;24.63;;;7.20;;
15289;SDS011;7746;50.554;7.108;2023-03-04T12:41:24;19.63;;;6.07;;
15289;SDS011;7746;50.554;7.108;2023-03-04T12:43:55;21.33;;;6.70;;
15289;SDS011;7746;50.554;7.108;2023-03-04T12:46:29;20.17;;;6.13;;
15289;SDS011;7746;50.554;7.108;2023-03-04T12:49:10;28.93;;;7.47;;
15289;SDS011;7746;50.554;7.108;2023-03-04T12:51:42;18.03;;;6.33;;
15289;SDS011;7746;50.554;7.108;2023-03-04T12:54:14;22.17;;;6.80;;
15289;SDS011;7746;50.554;7.108;2023-03-04T12:56:43;23.83;;;7.63;;
15289;SDS011;7746;50.554;7.108;2023-03-04T12:59:14;28.47;;;7.67;;
15289;SDS011;7746;50.554;7.108;2023-03-04T13:01:43;17.90;;;5.63;;
15289;SDS011;7746;50.554;7.108;2023-03-04T13:04:14;23.40;;;6.40;;
15289;SDS011;7746;50.554;7.108;2023-03-04T13:06:47;23.23;;;6.93;;
15289;SDS011;7746;50.554;7.108;2023-03-04T13:09:17;18.50;;;6.83;;
15289;SDS011;7746;50.554;7.108;2023-03-04T13:11:52;12.07;;;5.80;;
15289;SDS011;7746;50.554;7.108;2023-03-04T13:14:26;16.03;;;6.53;;
15289;SDS011;7746;50.554;7.108;2023-03-04T13:16:53;13.77;;;5.93;;
15289;SDS011;7746;50.554;7.108;2023-03-04T13:24:51;21.50;;;7.93;;
15289;SDS011;7746;50.554;7.108;2023-03-04T13:30:09;25.27;;;7.87;;
15289;SDS011;7746;50.554;7.108;2023-03-04T13:32:56;14.80;;;6.13;;
15289;SDS011;7746;50.554;7.108;2023-03-04T13:38:19;15.33;;;5.73;;
15289;SDS011;7746;50.554;7.108;2023-03-04T13:40:57;13.97;;;5.93;;
15289;SDS011;7746;50.554;7.108;2023-03-04T13:43:36;14.67;;;6.00;;
15289;SDS011;7746;50.554;7.108;2023-03-04T13:48:58;17.67;;;6.80;;
15289;SDS011;7746;50.554;7.108;2023-03-04T13:51:26;18.20;;;8.13;;
15289;SDS011;7746;50.554;7.108;2023-03-04T13:53:54;13.13;;;8.03;;
15289;SDS011;7746;50.554;7.108;2023-03-04T13:56:28;12.57;;;5.50;;
15289;SDS011;7746;50.554;7.108;2023-03-04T13:59:00;20.40;;;7.83;;
15289;SDS011;7746;50.554;7.108;2023-03-04T14:01:28;10.37;;;5.17;;
15289;SDS011;7746;50.554;7.108;2023-03-04T14:03:58;12.13;;;5.80;;
15289;SDS011;7746;50.554;7.108;2023-03-04T14:06:25;12.37;;;7.10;;
15289;SDS011;7746;50.554;7.108;2023-03-04T14:08:53;14.70;;;6.67;;
15289;SDS011;7746;50.554;7.108;2023-03-04T14:11:23;11.00;;;5.17;;
15289;SDS011;7746;50.554;7.108;2023-03-04T14:13:50;15.30;;;9.87;;
15289;SDS011;7746;50.554;7.108;2023-03-04T14:16:18;13.23;;;6.77;;
15289;SDS011;7746;50.554;7.108;2023-03-04T14:18:54;9.07;;;6.47;;
15289;SDS011;7746;50.554;7.108;2023-03-04T14:21:23;11.50;;;7.40;;
15289;SDS011;7746;50.554;7.108;2023-03-04T14:23:58;8.03;;;5.57;;
15289;SDS011;7746;50.554;7.108;2023-03-04T14:26:25;12.63;;;5.47;;
15289;SDS011;7746;50.554;7.108;2023-03-04T14:28:55;16.60;;;6.00;;
15289;SDS011;7746;50.554;7.108;2023-03-04T14:31:24;10.33;;;4.73;;
15289;SDS011;7746;50.554;7.108;2023-03-04T14:33:52;10.17;;;4.43;;
15289;SDS011;7746;50.554;7.108;2023-03-04T14:36:25;11.57;;;4.93;;
15289;SDS011;7746;50.554;7.108;2023-03-04T14:38:52;12.77;;;5.53;;
15289;SDS011;7746;50.554;7.108;2023-03-04T14:41:21;10.10;;;4.33;;
15289;SDS011;7746;50.554;7.108;2023-03-04T14:43:52;13.83;;;5.93;;
15289;SDS011;7746;50.554;7.108;2023-03-04T14:46:19;10.57;;;8.17;;
15289;SDS011;7746;50.554;7.108;2023-03-04T14:48:48;13.57;;;7.77;;
15289;SDS011;7746;50.554;7.108;2023-03-04T14:51:28;13.60;;;5.70;;
15289;SDS011;7746;50.554;7.108;2023-03-04T14:53:55;15.43;;;9.13;;
15289;SDS011;7746;50.554;7.108;2023-03-04T14:56:25;11.27;;;7.37;;
15289;SDS011;7746;50.554;7.108;2023-03-04T14:58:53;16.17;;;7.13;;
15289;SDS011;7746;50.554;7.108;2023-03-04T15:01:22;12.60;;;7.30;;
15289;SDS011;7746;50.554;7.108;2023-03-04T15:03:55;20.50;;;7.43;;
15289;SDS011;7746;50.554;7.108;2023-03-04T15:06:23;18.00;;;8.07;;
15289;SDS011;7746;50.554;7.108;2023-03-04T15:08:56;18.47;;;6.30;;
15289;SDS011;7746;50.554;7.108;2023-03-04T15:11:25;13.03;;;7.03;;
15289;SDS011;7746;50.554;7.108;2023-03-04T15:13:53;19.47;;;9.37;;
15289;SDS011;7746;50.554;7.108;2023-03-04T15:16:22;23.73;;;9.87;;
15289;SDS011;7746;50.554;7.108;2023-03-04T15:18:53;27.17;;;10.60;;
15289;SDS011;7746;50.554;7.108;2023-03-04T15:21:27;18.47;;;8.87;;
15289;SDS011;7746;50.554;7.108;2023-03-04T15:23:56;13.43;;;8.13;;